Time;durP1;ratioP1;P1;durP2;ratioP2;P2;SDS_P1;SDS_P2;PMS_P1;PMS_P2;Temp;Humidity;BMP_temperature;BMP_pressure;BME280_temperature;BME280_humidity;BME280_pressure;Samples;Min_cycle;Max_cycle;Signal;HPM_P1;HPM_P2
2022/09/25 00:04:58;;;;;;;15.53;9.73;;;;;;;12.97;90.62;100497.79;5049836;57;1143446;-67
2022/09/25 00:10:04;;;;;;;15.10;10.43;;;;;;;12.93;90.17;100496.38;4966933;59;1141369;-67
2022/09/25 00:15:11;;;;;;;21.20;10.40;;;;;;;12.86;90.63;100489.42;5018977;59;1143272;-69
2022/09/25 00:20:22;;;;;;;18.03;10.47;;;;;;;12.77;90.81;100485.41;5094878;57;1143281;-68
2022/09/25 00:25:27;;;;;;;19.17;11.03;;;;;;;12.63;90.23;100482.64;5032931;57;1143192;-65
2022/09/25 00:30:33;;;;;;;18.80;11.63;;;;;;;12.46;90.39;100471.31;5086985;57;1143310;-69
2022/09/25 00:35:39;;;;;;;21.63;11.30;;;;;;;12.46;90.65;100480.59;5097201;56;1143295;-70
2022/09/25 00:40:45;;;;;;;20.40;12.07;;;;;;;12.49;90.95;100484.31;5158084;56;1143187;-69
2022/09/25 00:45:51;;;;;;;30.50;15.90;;;;;;;12.52;90.88;100484.06;5044732;57;1143206;-68
2022/09/25 00:51:00;;;;;;;28.57;15.67;;;;;;;12.36;89.80;100480.55;5125041;56;1143174;-68
2022/09/25 00:56:08;;;;;;;27.13;15.20;;;;;;;12.19;90.14;100481.15;5052470;58;1143276;-66
2022/09/25 01:01:13;;;;;;;22.10;13.73;;;;;;;12.13;90.30;100476.35;5049419;58;1143310;-68
2022/09/25 01:06:20;;;;;;;31.43;14.97;;;;;;;12.08;90.20;100474.56;4994017;58;1143160;-66
2022/09/25 01:11:25;;;;;;;29.87;16.67;;;;;;;12.05;89.76;100471.72;5020426;57;1143319;-69
2022/09/25 01:16:44;;;;;;;25.70;15.90;;;;;;;12.03;90.20;100474.98;4982698;58;1143194;-67
2022/09/25 01:22:29;;;;;;;32.67;16.30;;;;;;;11.89;89.49;100476.14;5052440;57;1143197;-66
2022/09/25 01:27:43;;;;;;;31.03;17.97;;;;;;;11.80;89.73;100479.53;5057619;57;1143253;-68
2022/09/25 01:33:24;;;;;;;31.83;15.93;;;;;;;11.62;89.58;100478.38;5057964;57;1141173;-69
2022/09/25 01:38:34;;;;;;;27.27;15.10;;;;;;;11.55;89.90;100470.59;5055905;57;1141247;-68
2022/09/25 01:43:53;;;;;;;30.57;13.80;;;;;;;11.48;89.84;100467.59;5116380;57;1141094;-69
2022/09/25 01:49:03;;;;;;;31.67;15.33;;;;;;;11.45;89.95;100455.95;5120909;57;1141628;-69
2022/09/25 01:54:12;;;;;;;23.67;15.23;;;;;;;11.34;89.58;100446.70;5111000;57;1141208;-65
2022/09/25 01:59:35;;;;;;;28.17;16.03;;;;;;;11.17;89.80;100452.05;5116813;57;1139038;-65
2022/09/25 02:04:46;;;;;;;25.50;13.80;;;;;;;11.20;90.81;100462.88;5114850;57;1143314;-69
2022/09/25 02:09:56;;;;;;;21.50;12.70;;;;;;;11.20;90.30;100462.39;5106090;57;1143213;-69
2022/09/25 02:15:08;;;;;;;21.97;12.97;;;;;;;11.25;90.58;100468.16;5080587;57;1143173;-68
2022/09/25 02:20:33;;;;;;;22.90;12.47;;;;;;;11.15;89.74;100473.02;5085098;57;1143202;-66
2022/09/25 02:25:45;;;;;;;26.10;14.83;;;;;;;10.86;89.40;100473.52;5082918;58;1143292;-70
2022/09/25 02:30:54;;;;;;;23.73;14.33;;;;;;;10.75;90.57;100474.85;5111347;58;1143186;-70
2022/09/25 02:36:03;;;;;;;20.87;13.10;;;;;;;10.78;91.16;100469.33;5087560;58;1143361;-66
2022/09/25 02:41:32;;;;;;;22.63;13.40;;;;;;;10.83;91.23;100468.48;5080633;58;1143239;-68
2022/09/25 02:47:01;;;;;;;28.90;15.10;;;;;;;10.89;91.15;100467.14;5111148;58;1143267;-68
2022/09/25 02:52:29;;;;;;;30.90;15.30;;;;;;;10.97;91.26;100468.71;5111138;58;1143515;-69
2022/09/25 02:58:00;;;;;;;31.73;15.00;;;;;;;10.89;90.54;100465.34;5141428;57;1143653;-70
2022/09/25 03:03:10;;;;;;;24.73;13.97;;;;;;;10.67;90.29;100464.05;5047403;58;1141119;-70
2022/09/25 03:13:40;;;;;;;32.20;17.30;;;;;;;10.60;91.65;100455.38;4978200;58;1141609;-66
2022/09/25 03:18:50;;;;;;;34.43;17.90;;;;;;;10.57;91.59;100448.05;5083723;57;1141285;-69
2022/09/25 03:23:56;;;;;;;29.53;18.77;;;;;;;10.51;91.61;100458.28;5121216;57;1141190;-67
2022/09/25 03:29:02;;;;;;;32.63;17.67;;;;;;;10.41;92.03;100451.52;5132425;57;1141122;-70
2022/09/25 03:34:08;;;;;;;31.00;16.07;;;;;;;10.41;92.35;100441.43;5096411;57;1141020;-68
2022/09/25 03:39:21;;;;;;;31.97;16.07;;;;;;;10.46;92.40;100444.56;5017097;58;1141204;-66
2022/09/25 03:44:24;;;;;;;27.07;13.73;;;;;;;10.54;92.08;100448.79;5072873;57;1141219;-67
2022/09/25 03:49:29;;;;;;;23.30;14.83;;;;;;;10.47;91.79;100447.58;5072774;57;1141018;-65
2022/09/25 03:54:35;;;;;;;29.07;16.63;;;;;;;10.39;92.58;100447.34;5072430;57;1139010;-67
2022/09/25 03:59:41;;;;;;;34.53;17.17;;;;;;;10.37;92.95;100450.11;5072675;57;1139217;-64
2022/09/25 04:04:46;;;;;;;32.10;16.85;;;;;;;10.27;92.66;100444.31;5072566;57;1139021;-66
2022/09/25 04:09:52;;;;;;;28.73;16.93;;;;;;;10.21;93.03;100442.52;5003657;58;1143088;-66
2022/09/25 04:14:58;;;;;;;29.87;16.55;;;;;;;10.19;93.26;100443.11;4991617;57;1143123;-67
2022/09/25 04:20:04;;;;;;;31.77;18.90;;;;;;;10.19;93.73;100449.72;5020553;58;1143270;-65
2022/09/25 04:25:10;;;;;;;21.30;16.37;;;;;;;10.25;94.40;100445.74;4991922;58;1143170;-68
2022/09/25 04:30:16;;;;;;;28.07;17.43;;;;;;;10.36;94.59;100458.16;4991458;58;1143277;-71
2022/09/25 04:35:22;;;;;;;28.33;16.67;;;;;;;10.42;94.31;100454.53;5002713;57;1143163;-67
2022/09/25 04:40:29;;;;;;;29.17;16.67;;;;;;;10.50;94.45;100461.41;5032946;58;1143160;-66
2022/09/25 04:45:36;;;;;;;29.73;16.60;;;;;;;10.60;94.18;100467.28;4991503;58;1143148;-70
2022/09/25 04:50:51;;;;;;;27.17;18.33;;;;;;;10.54;94.07;100460.18;5003046;58;1143148;-68
2022/09/25 04:56:15;;;;;;;32.23;18.67;;;;;;;10.58;94.77;100452.38;5072601;57;1143438;-69
2022/09/25 05:01:20;;;;;;;28.43;16.87;;;;;;;10.52;94.20;100452.03;5072219;57;1143523;-67
2022/09/25 05:06:25;;;;;;;32.30;18.07;;;;;;;10.46;94.46;100446.73;4998407;58;1143351;-67
2022/09/25 05:11:31;;;;;;;36.05;19.67;;;;;;;10.52;94.97;100450.71;4982848;58;1143188;-67
2022/09/25 05:16:37;;;;;;;39.07;22.63;;;;;;;10.60;95.20;100452.25;4991531;58;1143168;-68
2022/09/25 05:21:44;;;;;;;38.40;21.47;;;;;;;10.66;95.32;100451.78;5064427;57;1143168;-67
2022/09/25 05:26:50;;;;;;;35.23;22.13;;;;;;;10.69;95.54;100454.67;5083921;57;1143211;-68
2022/09/25 05:31:56;;;;;;;51.77;24.50;;;;;;;10.71;95.67;100459.33;5097647;58;1143163;-67
2022/09/25 05:37:03;;;;;;;31.83;18.80;;;;;;;10.76;95.87;100454.05;5069525;58;1143130;-67
2022/09/25 05:42:08;;;;;;;32.20;20.37;;;;;;;10.81;95.81;100452.38;5075704;58;1143220;-68
2022/09/25 05:47:15;;;;;;;41.17;21.57;;;;;;;10.86;95.94;100452.34;5048143;58;1143094;-65
2022/09/25 05:52:20;;;;;;;34.07;21.60;;;;;;;10.95;96.51;100452.11;5081664;58;1143190;-65
2022/09/25 05:57:28;;;;;;;46.33;22.00;;;;;;;11.01;96.59;100458.70;5061184;58;1143179;-65
2022/09/25 06:02:34;;;;;;;40.60;22.83;;;;;;;11.00;96.27;100456.53;5063461;58;1143218;-67
2022/09/25 06:07:40;;;;;;;31.67;19.40;;;;;;;10.83;95.99;100452.62;5057641;58;1143192;-69
2022/09/25 06:12:47;;;;;;;38.07;21.40;;;;;;;10.68;96.13;100453.83;5059291;58;1143144;-65
2022/09/25 06:17:53;;;;;;;44.57;23.37;;;;;;;10.61;96.86;100452.62;5065448;58;1143143;-66
2022/09/25 06:23:02;;;;;;;58.57;27.40;;;;;;;10.62;97.32;100446.37;5077908;57;1143222;-69
2022/09/25 06:28:11;;;;;;;76.87;40.97;;;;;;;10.72;98.67;100449.12;5143514;56;1143318;-66
2022/09/25 06:33:17;;;;;;;63.60;35.07;;;;;;;10.88;99.60;100449.58;5103161;56;1143330;-68
2022/09/25 06:38:23;;;;;;;40.63;23.17;;;;;;;10.98;99.56;100449.22;5071746;56;1143181;-67
2022/09/25 06:43:30;;;;;;;40.00;24.50;;;;;;;11.12;99.80;100446.78;4941455;59;1143152;-67
2022/09/25 06:48:36;;;;;;;76.60;41.33;;;;;;;11.18;99.36;100452.89;4966676;58;1143190;-68
2022/09/25 06:53:41;;;;;;;76.75;42.05;;;;;;;11.22;99.58;100448.55;5058505;57;1143126;-68
2022/09/25 06:58:47;;;;;;;54.23;31.17;;;;;;;11.17;99.80;100448.08;5058802;57;1141045;-68
2022/09/25 07:03:54;;;;;;;73.40;39.00;;;;;;;11.12;100.00;100454.25;5050426;57;1141064;-68
2022/09/25 07:09:00;;;;;;;52.67;35.10;;;;;;;11.12;100.00;100450.75;5017928;58;1143722;-70
2022/09/25 07:14:05;;;;;;;59.30;32.83;;;;;;;11.15;100.00;100449.19;4926537;59;1143131;-67
2022/09/25 07:19:11;;;;;;;40.73;27.37;;;;;;;11.30;100.00;100445.77;4921424;59;1143172;-68
2022/09/25 07:24:17;;;;;;;48.97;29.20;;;;;;;11.49;100.00;100451.22;4921083;59;1143451;-69
2022/09/25 07:29:23;;;;;;;51.63;31.13;;;;;;;11.69;100.00;100443.80;5012268;57;1143325;-69
2022/09/25 07:34:29;;;;;;;100.83;62.87;;;;;;;11.69;100.00;100443.80;5019982;57;1143213;-69
2022/09/25 07:39:35;;;;;;;49.53;31.33;;;;;;;11.83;100.00;100451.47;5074184;57;1145242;-64
2022/09/25 07:44:41;;;;;;;52.10;30.87;;;;;;;11.90;100.00;100444.70;5092008;57;1142529;-66
2022/09/25 07:49:47;;;;;;;46.37;29.67;;;;;;;11.96;100.00;100443.31;5059159;57;1143094;-69
2022/09/25 07:54:53;;;;;;;36.97;25.07;;;;;;;12.01;100.00;100445.10;5130410;57;1143159;-66
2022/09/25 07:59:59;;;;;;;42.90;26.37;;;;;;;12.07;100.00;100437.94;5066985;57;1143095;-70
2022/09/25 08:05:05;;;;;;;36.83;23.32;;;;;;;12.19;100.00;100437.40;5110999;57;1143171;-70
2022/09/25 08:10:12;;;;;;;42.63;25.60;;;;;;;12.30;100.00;100432.00;4944580;59;1143221;-67
2022/09/25 08:15:18;;;;;;;39.80;24.30;;;;;;;12.45;100.00;100424.53;4972128;58;1143305;-66
2022/09/25 08:20:24;;;;;;;42.53;26.73;;;;;;;12.48;100.00;100424.27;4972466;58;1143291;-67
2022/09/25 08:25:30;;;;;;;30.33;20.83;;;;;;;12.55;100.00;100424.92;5046874;58;1143186;-70
2022/09/25 08:30:36;;;;;;;32.33;19.77;;;;;;;12.66;100.00;100422.67;5025405;58;1141356;-64
2022/09/25 08:35:42;;;;;;;30.20;20.77;;;;;;;12.81;100.00;100417.34;5046987;59;21206;-67
2022/09/25 08:40:55;;;;;;;30.23;20.53;;;;;;;12.97;100.00;100412.84;5024962;59;1141211;-69
2022/09/25 08:51:18;;;;;;;25.77;16.27;;;;;;;13.14;100.00;100417.45;4893107;59;1145216;-66
2022/09/25 08:56:28;;;;;;;28.03;18.50;;;;;;;13.22;100.00;100414.16;4854984;59;1145157;-65
2022/09/25 09:01:52;;;;;;;23.23;17.70;;;;;;;13.21;100.00;100415.12;4935221;59;1145226;-66
2022/09/25 09:07:07;;;;;;;26.90;15.47;;;;;;;13.23;100.00;100418.00;4947919;59;1145224;-66
2022/09/25 09:12:18;;;;;;;20.00;15.30;;;;;;;13.31;100.00;100421.28;4958738;59;1145603;-68
2022/09/25 09:17:28;;;;;;;23.50;16.30;;;;;;;13.41;100.00;100422.14;4981080;59;1145800;-68
2022/09/25 09:22:37;;;;;;;25.63;17.80;;;;;;;13.45;100.00;100415.55;4964616;59;1145294;-68
2022/09/25 09:28:13;;;;;;;28.33;16.10;;;;;;;13.52;100.00;100410.52;4980001;59;1145167;-69
2022/09/25 09:33:37;;;;;;;34.27;17.20;;;;;;;13.51;100.00;100404.86;4957496;58;1145233;-66
2022/09/25 09:38:59;;;;;;;26.83;16.17;;;;;;;13.58;99.72;100397.53;4987429;58;1145385;-65
2022/09/25 09:44:28;;;;;;;23.53;17.37;;;;;;;13.65;99.71;100394.64;4943534;59;1143266;-68
2022/09/25 09:49:46;;;;;;;30.90;19.10;;;;;;;13.77;100.00;100388.66;5038414;58;1141278;-66
2022/09/25 09:55:02;;;;;;;25.73;15.97;;;;;;;13.86;99.75;100386.98;5067823;57;1143463;-69
2022/09/25 10:00:21;;;;;;;29.00;15.83;;;;;;;13.99;99.85;100386.19;5044941;58;1141530;-69
2022/09/25 10:05:43;;;;;;;25.47;17.07;;;;;;;14.13;99.55;100383.06;5043573;58;1141307;-69
2022/09/25 10:10:53;;;;;;;26.15;16.45;;;;;;;14.27;99.36;100377.76;5057915;58;1141255;-68
2022/09/25 10:16:12;;;;;;;26.37;15.67;;;;;;;14.32;98.48;100373.69;5029260;58;1138990;-68
2022/09/25 10:21:26;;;;;;;19.47;13.83;;;;;;;14.41;98.70;100367.50;5097288;58;1143128;-68
2022/09/25 10:26:35;;;;;;;;;;;;;;;14.48;97.84;100364.27;5056647;58;1143091;-70
2022/09/25 10:31:41;;;;;;;24.97;15.90;;;;;;;14.51;97.16;100358.66;5190185;56;976360;-69
2022/09/25 10:36:52;;;;;;;23.17;13.60;;;;;;;14.55;96.98;100355.52;5196119;56;1141047;-65
2022/09/25 10:41:59;;;;;;;17.57;12.37;;;;;;;14.59;95.35;100353.41;5178277;56;1143392;-68
2022/09/25 10:52:54;;;;;;;20.87;13.83;;;;;;;14.64;92.94;100348.00;5211658;56;1143463;-68
2022/09/25 10:58:10;;;;;;;18.05;12.45;;;;;;;14.69;94.01;100339.05;5201030;55;1143405;-66
2022/09/25 11:03:35;;;;;;;19.47;14.07;;;;;;;14.76;94.00;100337.97;5214376;56;1143143;-69
2022/09/25 11:08:43;;;;;;;21.13;15.43;;;;;;;14.90;93.79;100336.61;5227565;56;1143106;-70
2022/09/25 11:13:53;;;;;;;27.27;15.60;;;;;;;15.02;93.15;100334.90;5137585;56;1143155;-68
2022/09/25 11:19:30;;;;;;;20.40;13.07;;;;;;;15.09;93.07;100333.81;5083352;57;1143103;-66
2022/09/25 11:25:21;;;;;;;40.20;25.40;;;;;;;15.12;92.83;100331.66;5051074;58;1143728;-69
2022/09/25 11:30:32;;;;;;;40.80;23.97;;;;;;;15.23;91.74;100323.94;5042981;58;1141427;-67
2022/09/25 11:36:06;;;;;;;24.50;15.70;;;;;;;15.26;89.01;100318.81;5004789;57;1141094;-70
2022/09/25 11:41:30;;;;;;;18.42;12.55;;;;;;;15.29;88.58;100320.64;4885581;60;1139493;-65
2022/09/25 11:47:14;;;;;;;12.87;10.67;;;;;;;15.35;89.23;100310.72;5110351;58;1143403;-70
2022/09/25 11:52:46;;;;;;;18.25;12.85;;;;;;;15.40;88.71;100307.09;5139194;57;1143410;-70
2022/09/25 11:58:18;;;;;;;15.03;11.17;;;;;;;15.43;87.87;100306.77;5157226;57;1143425;-67
2022/09/25 12:04:04;;;;;;;20.03;11.77;;;;;;;15.51;86.51;100298.50;5144018;57;1143443;-66
2022/09/25 12:09:26;;;;;;;17.77;11.43;;;;;;;15.61;85.73;100290.77;5109933;58;1143433;-67
2022/09/25 12:14:54;;;;;;;16.17;10.60;;;;;;;15.72;86.51;100287.86;5007708;58;1143145;-69
2022/09/25 12:20:21;;;;;;;15.57;10.73;;;;;;;15.98;86.85;100285.66;5013958;59;1141153;-70
2022/09/25 12:25:54;;;;;;;14.10;10.73;;;;;;;16.21;85.88;100281.90;4957775;59;1141285;-69
2022/09/25 12:31:16;;;;;;;16.80;9.93;;;;;;;16.50;84.71;100273.82;4971693;59;1141496;-69
2022/09/25 12:36:38;;;;;;;13.63;10.30;;;;;;;16.74;82.56;100264.23;5026182;59;1137202;-71
2022/09/25 12:41:50;;;;;;;18.87;11.30;;;;;;;16.93;81.26;100253.25;5017046;59;1143239;-70
2022/09/25 12:47:00;;;;;;;19.73;10.48;;;;;;;17.08;81.57;100250.74;4979272;58;1143182;-68
2022/09/25 12:52:11;;;;;;;16.13;9.90;;;;;;;17.28;81.14;100253.88;5032090;58;1143281;-66
2022/09/25 12:57:40;;;;;;;13.80;9.60;;;;;;;17.46;79.52;100246.51;5106597;58;1141083;-67
2022/09/25 13:02:50;;;;;;;12.10;9.43;;;;;;;17.58;78.67;100243.80;5110864;58;1141410;-67
2022/09/25 13:08:19;;;;;;;12.87;8.23;;;;;;;17.72;78.62;100240.98;5110769;58;1141281;-70
2022/09/25 13:13:29;;;;;;;11.83;7.87;;;;;;;17.79;74.94;100241.45;5075157;57;1141159;-65
2022/09/25 13:18:37;;;;;;;10.37;7.23;;;;;;;17.86;76.55;100237.09;5033305;58;1141197;-67
2022/09/25 13:23:43;;;;;;;11.83;7.43;;;;;;;18.04;76.05;100235.99;5094608;58;1141186;-70
2022/09/25 13:29:03;;;;;;;13.97;8.07;;;;;;;18.10;73.57;100239.33;5073474;58;1141058;-68
2022/09/25 13:34:13;;;;;;;11.83;7.27;;;;;;;18.13;73.29;100233.63;5154013;57;1141387;-69
2022/09/25 13:45:24;;;;;;;8.00;5.12;;;;;;;18.25;72.75;100227.70;5194611;57;1139183;-68
2022/09/25 13:50:43;;;;;;;10.80;5.87;;;;;;;18.43;68.53;100231.45;5195050;57;1137234;-67
2022/09/25 13:55:56;;;;;;;6.97;5.50;;;;;;;18.50;69.05;100219.52;5194678;57;1139025;-69
2022/09/25 14:01:02;;;;;;;8.58;6.53;;;;;;;18.51;66.79;100215.32;5195019;57;1136943;-71
2022/09/25 14:06:20;;;;;;;8.20;4.78;;;;;;;18.53;68.10;100215.15;5155730;57;1136998;-70
2022/09/25 14:11:36;;;;;;;5.30;4.67;;;;;;;18.60;69.35;100210.28;5190259;57;1136982;-70
2022/09/25 14:16:49;;;;;;;4.92;4.17;;;;;;;18.70;67.58;100203.84;5194848;57;1134648;-70
2022/09/25 14:21:57;;;;;;;8.83;5.65;;;;;;;18.80;69.05;100203.92;5191054;57;1139223;-67
2022/09/25 14:27:03;;;;;;;4.90;4.40;;;;;;;18.87;66.61;100209.41;5195130;57;1139071;-67
2022/09/25 14:32:28;;;;;;;6.70;4.53;;;;;;;18.86;67.32;100198.36;5206924;56;1139196;-70
2022/09/25 14:38:08;;;;;;;12.58;5.03;;;;;;;18.88;66.93;100195.83;5164499;56;1138978;-69
2022/09/25 14:43:40;;;;;;;9.43;6.00;;;;;;;18.93;66.63;100184.07;5144761;55;1141127;-67
2022/09/25 14:49:13;;;;;;;17.15;5.92;;;;;;;18.93;65.24;100184.58;5113803;57;1138974;-65
2022/09/25 14:54:25;;;;;;;5.92;5.12;;;;;;;18.95;66.12;100183.36;5122751;56;1140950;-69
2022/09/25 14:59:46;;;;;;;6.50;5.10;;;;;;;18.93;65.34;100172.02;5132349;57;1139022;-68
2022/09/25 15:04:57;;;;;;;6.50;4.30;;;;;;;18.95;65.73;100168.62;5130422;56;1138977;-68
2022/09/25 15:10:02;;;;;;;6.62;4.97;;;;;;;18.99;67.11;100166.41;5137335;56;1139015;-67
2022/09/25 15:15:12;;;;;;;4.46;4.02;;;;;;;19.04;67.28;100161.35;5168881;56;1139035;-70
2022/09/25 15:20:27;;;;;;;5.87;5.17;;;;;;;19.11;67.15;100161.44;5175042;56;1139190;-68
2022/09/25 15:25:39;;;;;;;5.80;4.85;;;;;;;19.10;66.74;100153.90;5177743;56;1136860;-69
2022/09/25 15:30:47;;;;;;;6.90;4.97;;;;;;;19.07;65.86;100149.44;5164758;56;1137123;-70
2022/09/25 15:36:21;;;;;;;9.28;6.22;;;;;;;19.01;66.44;100140.77;5164326;57;1136893;-69
2022/09/25 15:41:28;;;;;;;10.00;5.42;;;;;;;18.94;65.61;100146.05;5135764;57;1136921;-70
2022/09/25 15:46:41;;;;;;;5.95;5.08;;;;;;;19.00;67.10;100146.64;5143011;56;1139056;-69
2022/09/25 15:52:03;;;;;;;11.53;5.15;;;;;;;19.11;67.40;100143.50;5191981;57;1136875;-69
2022/09/25 15:57:15;;;;;;;7.33;5.67;;;;;;;19.31;67.45;100141.13;5163596;57;1137130;-68
2022/09/25 16:07:45;;;;;;;61.75;44.23;;;;;;;19.03;66.32;100132.88;5134641;57;1143057;-69
2022/09/25 16:12:52;;;;;;;56.10;27.45;;;;;;;18.76;66.51;100137.00;5196110;57;1143067;-68
2022/09/25 16:18:26;;;;;;;42.08;14.58;;;;;;;18.48;67.76;100139.38;5187501;56;1143218;-69
2022/09/25 16:23:31;;;;;;;;;;;;;;;18.12;68.45;100131.09;5142228;56;1143104;-65
2022/09/25 16:28:38;;;;;;;37.78;7.08;;;;;;;17.71;69.01;100124.30;5141471;56;976310;-68
2022/09/25 16:33:49;;;;;;;31.03;7.63;;;;;;;17.43;69.79;100130.04;5143331;56;1139244;-68
2022/09/25 16:39:13;;;;;;;25.97;8.50;;;;;;;17.23;70.65;100120.77;5200226;56;1140979;-67
2022/09/25 16:44:24;;;;;;;25.17;11.30;;;;;;;17.08;71.45;100120.64;5164374;56;1141248;-68
2022/09/25 16:49:31;;;;;;;26.97;13.10;;;;;;;16.82;72.36;100114.16;5175161;56;1143341;-66
2022/09/25 16:54:39;;;;;;;20.83;11.20;;;;;;;16.66;73.05;100118.17;5153372;56;1143155;-66
2022/09/25 16:59:45;;;;;;;19.30;8.43;;;;;;;;;;5169049;56;1143158;-68
2022/09/25 17:04:52;;;;;;;15.57;8.63;;;;;;;16.43;74.46;100118.00;5160707;56;820115;-68
2022/09/25 17:09:59;;;;;;;17.40;9.57;;;;;;;16.25;75.19;100110.64;5197846;56;1138991;-67
2022/09/25 17:15:07;;;;;;;18.42;11.75;;;;;;;16.24;76.28;100108.13;5190798;56;1140970;-68
2022/09/25 17:20:14;;;;;;;87.10;51.63;;;;;;;16.21;76.70;100105.78;5128252;57;1143210;-69
2022/09/25 17:25:40;;;;;;;82.93;48.37;;;;;;;16.19;76.83;100109.98;5145010;56;1143128;-68
2022/09/25 17:30:46;;;;;;;17.23;10.00;;;;;;;16.14;77.26;100098.96;5177617;56;1143106;-66
2022/09/25 17:36:05;;;;;;;108.00;55.93;;;;;;;16.17;77.77;100106.64;5154308;56;1140932;-70
2022/09/25 17:41:30;;;;;;;64.23;35.17;;;;;;;16.09;78.05;100091.94;5115697;57;1143060;-66
2022/09/25 17:46:35;;;;;;;35.83;19.73;;;;;;;16.00;78.40;100099.11;5160160;57;1141152;-69
2022/09/25 17:51:42;;;;;;;42.13;20.60;;;;;;;15.94;78.52;100094.42;5163933;57;1141009;-66
2022/09/25 17:56:47;;;;;;;38.70;19.97;;;;;;;15.87;78.68;100098.76;5111477;58;1141111;-66
2022/09/25 18:01:53;;;;;;;41.17;23.17;;;;;;;15.75;78.70;100096.87;5142847;57;1141263;-68
2022/09/25 18:06:59;;;;;;;46.57;26.67;;;;;;;15.60;79.13;100089.16;5157845;57;1141157;-70
2022/09/25 18:12:05;;;;;;;181.97;89.77;;;;;;;15.45;79.67;100092.06;5163225;57;1141047;-69
2022/09/25 18:17:11;;;;;;;112.57;60.20;;;;;;;15.30;79.79;100084.34;5113760;57;1142979;-67
2022/09/25 18:22:19;;;;;;;124.57;69.67;;;;;;;15.23;80.01;100080.67;5154149;57;1143106;-68
2022/09/25 18:27:32;;;;;;;68.37;38.33;;;;;;;15.22;80.71;100081.66;5161779;57;1143156;-69
2022/09/25 18:32:37;;;;;;;154.23;92.05;;;;;;;15.09;80.94;100080.27;5161490;57;1139220;-66
2022/09/25 18:37:44;;;;;;;158.47;92.00;;;;;;;14.95;81.19;100086.19;5181444;56;1266961;-67
2022/09/25 18:42:50;;;;;;;96.53;56.07;;;;;;;14.91;81.89;100085.32;5178380;56;1147117;-68
2022/09/25 18:47:57;;;;;;;71.93;40.03;;;;;;;14.89;81.76;100084.14;5197873;56;1143100;-69
2022/09/25 18:53:02;;;;;;;133.27;71.55;;;;;;;14.86;81.84;100086.27;5191336;56;1143091;-68
2022/09/25 18:58:08;;;;;;;68.83;40.80;;;;;;;14.86;82.28;100076.46;5168515;56;1145202;-69
2022/09/25 19:03:14;;;;;;;113.43;73.30;;;;;;;14.83;82.27;100076.77;5169844;56;1143354;-69
2022/09/25 19:08:20;;;;;;;59.10;35.03;;;;;;;14.84;82.68;100082.44;5195026;56;1145252;-67
2022/09/25 19:13:29;;;;;;;50.00;30.50;;;;;;;14.83;82.73;100079.92;5177143;56;1143117;-68
2022/09/25 19:18:35;;;;;;;118.53;70.67;;;;;;;14.75;82.48;100076.23;5163567;56;1143187;-68
2022/09/25 19:23:42;;;;;;;139.23;72.40;;;;;;;14.60;82.49;100072.47;5170730;56;1145795;-69
2022/09/25 19:28:48;;;;;;;125.20;61.70;;;;;;;14.49;82.95;100070.56;5175946;56;1145224;-67
2022/09/25 19:33:55;;;;;;;99.27;52.43;;;;;;;14.53;83.30;100068.75;5172080;56;1145225;-69
2022/09/25 19:39:02;;;;;;;94.03;49.50;;;;;;;14.58;83.58;100069.62;5166477;56;1143160;-69
2022/09/25 19:44:11;;;;;;;82.07;40.63;;;;;;;14.57;83.69;100070.61;5168934;56;1143073;-68
2022/09/25 19:49:19;;;;;;;79.80;39.73;;;;;;;14.58;83.88;100067.80;5195957;56;1143171;-69
2022/09/25 19:54:25;;;;;;;54.57;26.77;;;;;;;14.59;83.84;100066.81;5208189;56;1143472;-69
2022/09/25 19:59:31;;;;;;;67.70;29.07;;;;;;;14.47;82.97;100062.73;5199255;56;1143150;-69
2022/09/25 20:04:36;;;;;;;71.93;37.70;;;;;;;14.34;83.33;100059.12;5195766;57;1143135;-68
2022/09/25 20:09:43;;;;;;;35.10;18.83;;;;;;;14.37;83.57;100063.27;5195930;57;1143180;-68
2022/09/25 20:14:49;;;;;;;63.37;30.80;;;;;;;14.36;83.64;100065.62;5195851;56;1143192;-70
2022/09/25 20:19:55;;;;;;;56.97;27.93;;;;;;;14.24;83.63;100057.02;5165028;56;1143171;-68
2022/09/25 20:25:00;;;;;;;52.63;26.00;;;;;;;14.29;84.25;100052.09;5138490;56;1143114;-69
2022/09/25 20:30:07;;;;;;;47.27;26.07;;;;;;;14.29;84.24;100049.42;5138598;56;1143202;-67
2022/09/25 20:35:13;;;;;;;42.77;19.03;;;;;;;14.26;83.91;100050.22;5153179;56;1143358;-68
2022/09/25 20:40:20;;;;;;;40.17;20.03;;;;;;;14.23;83.52;100049.19;5224897;56;1143175;-69
2022/09/25 20:45:26;;;;;;;33.17;17.53;;;;;;;14.22;82.99;100049.69;5231436;56;1143137;-67
2022/09/25 20:50:32;;;;;;;28.57;14.20;;;;;;;14.12;82.62;100038.80;5239560;55;1143142;-69
2022/09/25 20:55:38;;;;;;;30.80;15.33;;;;;;;14.10;82.53;100034.96;5188046;56;1143115;-67
2022/09/25 21:00:44;;;;;;;44.87;21.17;;;;;;;14.13;82.69;100028.02;5223469;56;1142995;-68
2022/09/25 21:05:50;;;;;;;41.07;20.50;;;;;;;14.12;83.04;100029.00;5192903;56;1143215;-68
2022/09/25 21:10:58;;;;;;;23.57;13.30;;;;;;;14.10;83.62;100020.34;5133531;57;1143172;-67
2022/09/25 21:16:13;;;;;;;22.22;13.72;;;;;;;14.15;83.26;100014.08;5133927;57;1143100;-69
2022/09/25 21:21:20;;;;;;;20.57;11.47;;;;;;;14.17;82.65;100008.60;5148710;56;1143285;-67
2022/09/25 21:26:29;;;;;;;28.07;16.50;;;;;;;14.18;82.23;100010.28;5151742;56;1143147;-66
2022/09/25 21:31:38;;;;;;;26.27;16.80;;;;;;;13.99;83.47;99982.03;5151615;56;1143145;-66
2022/09/25 21:36:44;;;;;;;16.50;11.90;;;;;;;13.99;83.47;99982.03;5179246;56;1139217;-67
2022/09/25 21:41:51;;;;;;;17.97;11.53;;;;;;;14.07;82.69;99986.07;5151993;57;1139194;-67
2022/09/25 21:46:57;;;;;;;16.83;10.97;;;;;;;14.04;81.88;99977.93;5138588;56;1138962;-67
2022/09/25 21:52:03;;;;;;;20.02;11.80;;;;;;;14.02;81.80;99975.92;5161900;57;1139068;-67
2022/09/25 21:57:09;;;;;;;16.87;10.47;;;;;;;13.99;81.56;99964.75;5126473;57;1139162;-68
2022/09/25 22:02:15;;;;;;;14.17;10.07;;;;;;;14.01;81.87;99964.10;5195775;57;1138847;-68
2022/09/25 22:07:22;;;;;;;15.60;10.40;;;;;;;14.05;82.15;99962.81;5195692;57;1139167;-66
2022/09/25 22:12:27;;;;;;;23.47;11.60;;;;;;;14.04;82.56;99955.33;5195581;57;1139090;-66
2022/09/25 22:17:33;;;;;;;21.73;10.10;;;;;;;14.08;83.05;99955.83;5191170;57;1139023;-67
2022/09/25 22:22:39;;;;;;;16.70;10.27;;;;;;;14.09;83.09;99946.38;5129477;56;1139034;-68
2022/09/25 22:27:45;;;;;;;13.33;10.37;;;;;;;14.11;83.30;99942.23;5129825;57;1139050;-67
2022/09/25 22:32:51;;;;;;;12.07;9.73;;;;;;;14.17;83.14;99935.47;5129725;56;1138930;-67
2022/09/25 22:37:56;;;;;;;14.70;11.63;;;;;;;14.18;82.24;99932.66;5178012;56;1137164;-69
2022/09/25 22:43:03;;;;;;;16.43;11.10;;;;;;;14.18;81.54;99930.00;5164898;56;1139108;-68
2022/09/25 22:48:09;;;;;;;14.43;10.93;;;;;;;14.15;81.32;99930.80;5164536;56;1139287;-68
2022/09/25 22:53:15;;;;;;;15.23;10.77;;;;;;;14.09;80.80;99921.61;5155620;56;1138989;-68
2022/09/25 22:58:22;;;;;;;14.78;10.05;;;;;;;14.07;80.75;99915.60;5134337;57;1139046;-66
2022/09/25 23:03:28;;;;;;;16.10;11.73;;;;;;;14.02;80.61;99912.10;5134448;57;1139058;-67
2022/09/25 23:08:34;;;;;;;15.73;10.00;;;;;;;13.98;80.56;99908.08;5134314;57;1136998;-66
2022/09/25 23:13:40;;;;;;;14.67;10.00;;;;;;;13.97;80.60;99906.41;5133999;57;1162264;-69
2022/09/25 23:18:46;;;;;;;23.07;13.50;;;;;;;13.96;80.61;99905.23;5160972;56;1141313;-68
2022/09/25 23:24:01;;;;;;;14.60;11.00;;;;;;;13.93;80.47;99908.20;5220264;56;1141178;-67
2022/09/25 23:29:07;;;;;;;18.93;12.63;;;;;;;13.80;80.52;99906.44;5215174;56;1141069;-66
2022/09/25 23:34:14;;;;;;;19.07;11.37;;;;;;;13.79;80.63;99898.96;5220039;56;1141625;-67
2022/09/25 23:39:21;;;;;;;20.83;12.97;;;;;;;13.79;80.51;99894.14;5167202;56;1141290;-67